Terminal Aerodrome Forecast
Issued by NWS

Home | Current Version | Previous Version | Text Only | Print | Product List | Glossary On
Versions: 1 2 3 4 5 6 7 8 9 10 11 12 13 14
967
FTUS42 KMLB 041138
TAFFPR
TAF
KFPR 041138Z 0412/0512 10007KT P6SM BKN040
     FM041500 12012KT P6SM BKN040
     FM050000 13007KT P6SM BKN035
     FM050800 14003KT P6SM SCT006 BKN010=

USA.gov is the U.S. government's official web portal to all federal, state and local government web resources and services.